Time;durP1;ratioP1;P1;durP2;ratioP2;P2;SDS_P1;SDS_P2;PMS_P1;PMS_P2;Temp;Humidity;BMP_temperature;BMP_pressure;BME280_temperature;BME280_humidity;BME280_pressure;Samples;Min_cycle;Max_cycle;Signal;HPM_P1;HPM_P2
2021/12/14 00:02:17;;;;;;;56.85;39.00;;;2.30;99.90;;;;;;5025619;28;20071;-74
2021/12/14 00:04:44;;;;;;;55.83;39.47;;;2.30;99.90;;;;;;5027552;28;20038;-74
2021/12/14 00:07:14;;;;;;;58.58;41.35;;;2.30;99.90;;;;;;5016947;28;20022;-74
2021/12/14 00:09:42;;;;;;;56.65;39.75;;;2.30;99.90;;;;;;5018849;28;20106;-75
2021/12/14 00:16:02;;;;;;;52.90;37.53;;;2.30;99.90;;;;;;5227197;23;20046;-74
2021/12/14 00:18:28;;;;;;;55.20;36.33;;;2.30;99.90;;;;;;4987499;28;20397;-74
2021/12/14 00:20:58;;;;;;;59.38;37.97;;;2.30;99.90;;;;;;4992107;28;20037;-74
2021/12/14 00:26:14;;;;;;;66.95;43.47;;;2.30;99.90;;;;;;4992080;28;20415;-74
2021/12/14 00:28:40;;;;;;;68.32;44.22;;;2.30;99.90;;;;;;4992126;28;20357;-75
2021/12/14 00:31:13;;;;;;;60.22;41.65;;;2.40;99.90;;;;;;4992419;28;20034;-75
2021/12/14 00:33:40;;;;;;;57.53;38.67;;;2.30;99.90;;;;;;4992035;28;20029;-74
2021/12/14 00:36:08;;;;;;;53.22;37.80;;;2.30;99.90;;;;;;4991265;28;20030;-74
2021/12/14 00:38:35;;;;;;;58.15;38.22;;;2.30;99.90;;;;;;4990934;28;20136;-74
2021/12/14 00:41:07;;;;;;;57.47;37.60;;;2.30;99.90;;;;;;4991043;28;20026;-75
2021/12/14 00:43:33;;;;;;;54.55;37.60;;;2.30;99.90;;;;;;4990942;28;20065;-74
2021/12/14 00:45:59;;;;;;;56.28;36.13;;;2.30;99.90;;;;;;4993941;28;20030;-75
2021/12/14 00:48:25;;;;;;;53.92;37.17;;;2.30;99.90;;;;;;4978780;28;20062;-75
2021/12/14 00:50:55;;;;;;;51.28;35.55;;;2.30;99.90;;;;;;4994551;28;20581;-74
2021/12/14 00:53:22;;;;;;;50.78;35.78;;;2.30;99.90;;;;;;4994446;28;20092;-75
2021/12/14 00:55:50;;;;;;;49.75;33.88;;;2.30;99.90;;;;;;4994013;28;20089;-74
2021/12/14 00:58:17;;;;;;;50.92;36.42;;;2.30;99.90;;;;;;4996060;28;20026;-74
2021/12/14 01:00:48;;;;;;;48.75;33.67;;;2.30;99.90;;;;;;4994268;28;20077;-74
2021/12/14 01:03:15;;;;;;;48.30;33.38;;;2.30;99.90;;;;;;4991179;28;20419;-74
2021/12/14 01:05:44;;;;;;;47.38;33.25;;;2.30;99.90;;;;;;4980875;28;20038;-75
2021/12/14 01:08:16;;;;;;;49.75;35.63;;;2.30;99.90;;;;;;4991191;28;20041;-74
2021/12/14 01:10:52;;;;;;;44.40;32.65;;;2.20;99.90;;;;;;4995502;28;20372;-74
2021/12/14 01:13:23;;;;;;;47.60;32.72;;;2.30;99.90;;;;;;4994123;28;20065;-75
2021/12/14 01:19:02;;;;;;;46.80;33.00;;;2.30;99.90;;;;;;4994227;28;20042;-75
2021/12/14 01:24:20;;;;;;;49.63;35.42;;;2.30;99.90;;;;;;4993879;28;20026;-74
2021/12/14 01:26:46;;;;;;;50.78;34.33;;;2.30;99.90;;;;;;4994167;28;20065;-74
2021/12/14 01:29:15;;;;;;;50.03;34.95;;;2.30;99.90;;;;;;4995200;28;20126;-75
2021/12/14 01:31:42;;;;;;;49.40;34.05;;;2.30;99.90;;;;;;4993896;28;20019;-75
2021/12/14 01:34:16;;;;;;;49.88;33.35;;;2.30;99.90;;;;;;4976277;28;20118;-74
2021/12/14 01:36:46;;;;;;;45.40;31.90;;;2.30;99.90;;;;;;4992032;28;20030;-75
2021/12/14 01:42:15;;;;;;;45.65;32.08;;;2.30;99.90;;;;;;4992556;28;20030;-74
2021/12/14 01:44:49;;;;;;;46.35;31.33;;;2.40;99.90;;;;;;4988887;28;20030;-73
2021/12/14 01:47:49;;;;;;;45.33;32.97;;;2.30;99.90;;;;;;4991616;28;20076;-74
2021/12/14 01:50:30;;;;;;;48.47;33.28;;;2.30;99.90;;;;;;4995051;28;20041;-74
2021/12/14 01:53:23;;;;;;;48.80;35.22;;;2.30;99.90;;;;;;4974960;28;20038;-75
2021/12/14 01:55:54;;;;;;;61.42;41.08;;;2.30;99.90;;;;;;4987560;28;20058;-74
2021/12/14 01:58:39;;;;;;;68.65;47.38;;;2.20;99.90;;;;;;5006521;28;20132;-74
2021/12/14 02:01:16;;;;;;;55.85;37.80;;;2.20;99.90;;;;;;4974084;28;20125;-74
2021/12/14 02:03:48;;;;;;;46.00;34.08;;;2.20;99.90;;;;;;4983183;28;20019;-74
2021/12/14 02:06:20;;;;;;;50.20;34.10;;;2.20;99.90;;;;;;5006388;28;20031;-75
2021/12/14 02:08:52;;;;;;;48.03;33.55;;;2.10;99.90;;;;;;5005387;28;20054;-74
2021/12/14 02:11:19;;;;;;;47.22;32.78;;;2.00;99.90;;;;;;4988917;28;20161;-74
2021/12/14 02:13:47;;;;;;;46.38;33.53;;;2.00;99.90;;;;;;4993429;28;20121;-73
2021/12/14 02:16:22;;;;;;;48.75;33.90;;;2.00;99.90;;;;;;4992523;28;20137;-74
2021/12/14 02:18:52;;;;;;;50.03;34.40;;;2.00;99.90;;;;;;4993260;28;20050;-73
2021/12/14 02:21:18;;;;;;;47.33;34.85;;;2.00;99.90;;;;;;4994514;28;20023;-73
2021/12/14 02:23:48;;;;;;;53.28;35.58;;;2.00;99.90;;;;;;4994125;28;20101;-74
2021/12/14 02:26:21;;;;;;;51.70;36.28;;;2.00;99.90;;;;;;4992999;28;20026;-73
2021/12/14 02:28:50;;;;;;;53.42;35.58;;;2.00;99.90;;;;;;4992817;28;20042;-72
2021/12/14 02:31:20;;;;;;;50.63;35.60;;;2.00;99.90;;;;;;4993027;28;20389;-72
2021/12/14 02:33:49;;;;;;;50.03;36.65;;;2.00;99.90;;;;;;4993619;28;20576;-73
2021/12/14 02:36:24;;;;;;;45.85;34.33;;;2.10;99.90;;;;;;5009019;28;20093;-74
2021/12/14 02:39:04;;;;;;;48.88;34.78;;;2.10;99.90;;;;;;4994153;28;20040;-73
2021/12/14 02:41:42;;;;;;;48.28;34.97;;;2.20;99.90;;;;;;4974073;28;20853;-74
2021/12/14 02:44:08;;;;;;;53.22;35.55;;;2.20;99.90;;;;;;4972804;28;20026;-75
2021/12/14 02:46:42;;;;;;;53.20;35.35;;;2.20;99.90;;;;;;4973405;28;20034;-75
2021/12/14 02:49:11;;;;;;;48.38;33.53;;;2.20;99.90;;;;;;4974273;28;20023;-74
2021/12/14 02:51:49;;;;;;;47.42;33.65;;;2.30;99.90;;;;;;4973106;28;20030;-74
2021/12/14 02:54:25;;;;;;;48.08;33.47;;;2.30;99.90;;;;;;4972847;28;20118;-75
2021/12/14 02:57:01;;;;;;;46.22;33.95;;;2.30;99.90;;;;;;4984552;28;20057;-74
2021/12/14 02:59:31;;;;;;;50.80;33.85;;;2.30;99.90;;;;;;4991644;28;20544;-74
2021/12/14 03:02:05;;;;;;;45.53;32.35;;;2.30;99.90;;;;;;4991641;28;20029;-74
2021/12/14 03:04:48;;;;;;;45.60;32.13;;;2.40;99.90;;;;;;4992875;28;20050;-75
2021/12/14 03:07:16;;;;;;;41.30;29.40;;;2.40;99.90;;;;;;4988205;28;20388;-74
2021/12/14 03:12:21;;;;;;;39.03;28.55;;;2.40;99.90;;;;;;4992910;28;20026;-76
2021/12/14 03:14:54;;;;;;;42.25;27.55;;;2.40;99.90;;;;;;4991243;28;20477;-75
2021/12/14 03:17:21;;;;;;;43.80;30.13;;;2.40;99.90;;;;;;4991671;28;20085;-76
2021/12/14 03:20:05;;;;;;;37.70;27.63;;;2.50;99.90;;;;;;4993021;28;20044;-75
2021/12/14 03:22:38;;;;;;;40.10;27.33;;;2.50;99.90;;;;;;5005912;28;20061;-75
2021/12/14 03:25:06;;;;;;;39.70;28.13;;;2.40;99.90;;;;;;4991590;28;20072;-75
2021/12/14 03:27:34;;;;;;;41.88;27.60;;;2.50;99.90;;;;;;4993240;28;20026;-74
2021/12/14 03:30:00;;;;;;;40.83;27.27;;;2.50;99.90;;;;;;4992432;28;20025;-75
2021/12/14 03:32:28;;;;;;;44.17;29.58;;;2.50;99.90;;;;;;4992020;28;20481;-74
2021/12/14 03:34:54;;;;;;;39.05;27.63;;;2.50;99.90;;;;;;4991412;28;20040;-75
2021/12/14 03:37:24;;;;;;;40.88;27.75;;;2.50;99.90;;;;;;5007913;28;20038;-74
2021/12/14 03:39:59;;;;;;;39.42;27.15;;;2.50;99.90;;;;;;4991372;28;20126;-75
2021/12/14 03:42:36;;;;;;;42.47;28.40;;;2.50;99.90;;;;;;4990009;28;20116;-74
2021/12/14 03:45:19;;;;;;;40.67;27.73;;;2.50;99.90;;;;;;4998774;28;20074;-74
2021/12/14 03:47:53;;;;;;;41.03;28.38;;;2.50;99.90;;;;;;5007636;28;20030;-74
2021/12/14 03:50:27;;;;;;;39.45;27.45;;;2.50;99.90;;;;;;5007635;28;20488;-74
2021/12/14 03:52:53;;;;;;;45.30;29.27;;;2.60;99.90;;;;;;4991178;28;20399;-74
2021/12/14 03:55:30;;;;;;;44.70;29.58;;;2.50;99.90;;;;;;4991982;28;20027;-75
2021/12/14 03:57:58;;;;;;;43.85;30.58;;;2.50;99.90;;;;;;4991300;28;20027;-75
2021/12/14 04:00:33;;;;;;;42.10;29.73;;;2.40;99.90;;;;;;4991321;28;20054;-76
2021/12/14 04:03:04;;;;;;;45.50;31.00;;;2.40;99.90;;;;;;4992719;28;20034;-75
2021/12/14 04:05:57;;;;;;;47.05;30.73;;;2.40;99.90;;;;;;4991231;28;20027;-74
2021/12/14 04:08:24;;;;;;;45.05;33.38;;;2.40;99.90;;;;;;4991642;28;20043;-74
2021/12/14 04:10:55;;;;;;;47.85;32.58;;;2.30;99.90;;;;;;4990538;28;20037;-75
2021/12/14 04:13:27;;;;;;;49.25;34.42;;;2.40;99.90;;;;;;4990683;28;20034;-74
2021/12/14 04:15:56;;;;;;;50.95;34.85;;;2.30;99.90;;;;;;4989667;28;20050;-74
2021/12/14 04:18:29;;;;;;;49.83;34.58;;;2.30;99.90;;;;;;4989226;28;20038;-75
2021/12/14 04:20:56;;;;;;;51.40;35.03;;;2.20;99.90;;;;;;4981626;28;20026;-75
2021/12/14 04:23:27;;;;;;;65.50;43.05;;;2.20;99.90;;;;;;4993877;28;20023;-76
2021/12/14 04:25:57;;;;;;;77.22;48.22;;;2.20;99.90;;;;;;4990169;28;20066;-75
2021/12/14 04:28:31;;;;;;;54.92;37.15;;;2.20;99.90;;;;;;4993779;28;20047;-73
2021/12/14 04:30:58;;;;;;;71.80;46.30;;;2.20;99.90;;;;;;5007221;28;20362;-74
2021/12/14 04:33:29;;;;;;;68.57;41.22;;;2.10;99.90;;;;;;5009818;28;20026;-75
2021/12/14 04:35:57;;;;;;;64.68;40.40;;;2.20;99.90;;;;;;4993778;28;20027;-74
2021/12/14 04:38:30;;;;;;;67.50;44.95;;;2.10;99.90;;;;;;4994274;28;20125;-73
2021/12/14 04:52:21;;;;;;;75.35;43.33;;;2.10;99.90;;;;;;4993583;28;20026;-74
2021/12/14 04:54:53;;;;;;;144.32;58.67;;;2.10;99.90;;;;;;4994447;28;20015;-73
2021/12/14 04:57:27;;;;;;;;;;;2.00;99.90;;;;;;4993638;28;20084;-74
2021/12/14 04:59:57;;;;;;;133.82;56.88;;;2.00;99.90;;;;;;4993232;28;19925;-74
2021/12/14 05:02:30;;;;;;;113.57;47.05;;;2.00;99.90;;;;;;4992904;28;20042;-73
2021/12/14 05:05:06;;;;;;;200.13;69.18;;;1.90;99.90;;;;;;4993470;28;20361;-74
2021/12/14 05:07:48;;;;;;;285.60;79.50;;;1.80;99.90;;;;;;4977080;28;20393;-74
2021/12/14 05:10:19;;;;;;;187.57;59.83;;;1.80;99.90;;;;;;5005973;28;20102;-73
2021/12/14 05:12:46;;;;;;;254.45;69.53;;;1.80;99.90;;;;;;4986726;28;20041;-75
2021/12/14 05:15:35;;;;;;;182.65;52.97;;;1.70;99.90;;;;;;4978290;28;20417;-74
2021/12/14 05:18:12;;;;;;;118.55;41.58;;;1.70;99.90;;;;;;4992857;28;20037;-74
2021/12/14 05:20:48;;;;;;;131.32;43.90;;;1.70;99.90;;;;;;4992673;28;20037;-74
2021/12/14 05:23:23;;;;;;;204.93;61.67;;;1.70;99.90;;;;;;4992621;28;20117;-73
2021/12/14 05:25:50;;;;;;;185.43;52.42;;;1.70;99.90;;;;;;4992753;28;20027;-75
2021/12/14 05:28:19;;;;;;;171.32;51.78;;;1.70;99.90;;;;;;4992688;28;20049;-79
2021/12/14 05:30:50;;;;;;;193.75;63.72;;;1.70;99.90;;;;;;4992210;28;20117;-76
2021/12/14 05:33:42;;;;;;;191.85;64.32;;;1.70;99.90;;;;;;4978126;28;20034;-74
2021/12/14 05:36:29;;;;;;;137.95;52.25;;;1.70;99.90;;;;;;4992762;28;20053;-74
2021/12/14 05:39:06;;;;;;;171.00;61.08;;;1.70;99.90;;;;;;5009625;28;20560;-73
2021/12/14 05:44:41;;;;;;;160.80;47.20;;;1.50;99.90;;;;;;5006618;28;20411;-73
2021/12/14 05:47:12;;;;;;;127.85;48.85;;;1.50;99.90;;;;;;4990010;28;20041;-73
2021/12/14 05:49:49;;;;;;;175.55;47.65;;;1.50;99.90;;;;;;4993435;28;20031;-73
2021/12/14 05:52:24;;;;;;;136.70;49.47;;;1.40;99.90;;;;;;5009503;28;20034;-72
2021/12/14 05:54:53;;;;;;;142.38;47.47;;;1.30;99.90;;;;;;4993039;28;20125;-72
2021/12/14 05:57:23;;;;;;;141.80;47.80;;;1.20;99.90;;;;;;4993242;28;20030;-73
2021/12/14 05:59:51;;;;;;;126.88;49.40;;;1.20;99.90;;;;;;4992685;28;20047;-73
2021/12/14 06:02:19;;;;;;;117.00;44.65;;;1.20;99.90;;;;;;4993005;28;20416;-73
2021/12/14 06:04:50;;;;;;;143.80;49.88;;;1.20;99.90;;;;;;4992534;28;20029;-73
2021/12/14 06:07:18;;;;;;;126.38;46.97;;;1.10;99.90;;;;;;4992137;28;20026;-73
2021/12/14 06:09:48;;;;;;;142.25;46.83;;;1.10;99.90;;;;;;4992656;28;20113;-73
2021/12/14 06:12:30;;;;;;;131.10;44.13;;;1.00;99.90;;;;;;4992132;28;20488;-73
2021/12/14 06:14:59;;;;;;;101.00;44.95;;;1.00;99.90;;;;;;4992419;28;20047;-73
2021/12/14 06:17:30;;;;;;;97.35;39.65;;;1.00;99.90;;;;;;4992659;28;20042;-73
2021/12/14 06:20:02;;;;;;;101.72;42.50;;;0.90;99.90;;;;;;4992384;28;20027;-73
2021/12/14 06:22:28;;;;;;;120.90;44.30;;;0.90;99.90;;;;;;4989146;28;20110;-73
2021/12/14 06:25:03;;;;;;;96.63;36.33;;;0.90;99.90;;;;;;4987221;28;20031;-73
2021/12/14 06:27:32;;;;;;;150.77;45.60;;;0.90;99.90;;;;;;4976292;28;20022;-73
2021/12/14 06:30:08;;;;;;;158.85;44.53;;;1.00;99.90;;;;;;4993243;28;20054;-73
2021/12/14 06:32:44;;;;;;;148.98;39.83;;;1.00;99.90;;;;;;4992391;28;20027;-72
2021/12/14 06:35:20;;;;;;;178.27;56.22;;;0.90;99.90;;;;;;4992199;28;20030;-73
2021/12/14 06:38:26;;;;;;;198.48;69.20;;;1.00;99.90;;;;;;5005411;28;20363;-73
2021/12/14 06:41:01;;;;;;;177.52;54.47;;;1.10;99.90;;;;;;4988610;28;20484;-73
2021/12/14 06:43:33;;;;;;;100.93;41.80;;;1.20;99.90;;;;;;5007625;28;20030;-73
2021/12/14 06:46:05;;;;;;;169.40;58.58;;;1.20;99.90;;;;;;4992315;28;20096;-73
2021/12/14 06:48:38;;;;;;;169.55;54.50;;;1.30;99.90;;;;;;4991810;28;20214;-73
2021/12/14 06:51:04;;;;;;;123.63;52.45;;;1.30;99.90;;;;;;4991817;28;20057;-74
2021/12/14 06:54:26;;;;;;;130.73;60.90;;;1.30;99.90;;;;;;4979697;28;20110;-73
2021/12/14 06:56:58;;;;;;;128.40;54.75;;;1.40;99.90;;;;;;4976322;28;20038;-73
2021/12/14 06:59:33;;;;;;;108.38;55.72;;;1.40;99.90;;;;;;4958615;28;20038;-73
2021/12/14 07:02:12;;;;;;;122.30;56.55;;;1.40;99.90;;;;;;4982755;28;20078;-73
2021/12/14 07:04:58;;;;;;;158.32;62.35;;;1.50;99.90;;;;;;4986197;28;20440;-73
2021/12/14 07:07:27;;;;;;;122.28;57.10;;;1.50;99.90;;;;;;4958470;28;20114;-73
2021/12/14 07:09:58;;;;;;;108.70;51.58;;;1.50;99.90;;;;;;4981593;28;20118;-72
2021/12/14 07:12:26;;;;;;;102.45;42.58;;;1.60;99.90;;;;;;4972840;28;20412;-73
2021/12/14 07:14:53;;;;;;;124.78;43.25;;;1.50;99.90;;;;;;4976719;28;20533;-72
2021/12/14 07:17:26;;;;;;;92.03;40.42;;;1.50;99.90;;;;;;4987493;28;20038;-72
2021/12/14 07:20:13;;;;;;;128.80;47.17;;;1.50;99.90;;;;;;4977095;28;20435;-72
2021/12/14 07:22:48;;;;;;;129.52;54.15;;;1.50;99.90;;;;;;4978588;28;20089;-73
2021/12/14 07:25:33;;;;;;;127.55;48.40;;;1.50;99.90;;;;;;4987095;28;20117;-73
2021/12/14 07:28:06;;;;;;;120.85;48.63;;;1.60;99.90;;;;;;4979064;28;20038;-74
2021/12/14 07:30:34;;;;;;;88.28;40.00;;;1.70;99.90;;;;;;4993182;28;20089;-73
2021/12/14 07:33:08;;;;;;;112.00;45.88;;;1.60;99.90;;;;;;4992884;28;20022;-73
2021/12/14 07:35:43;;;;;;;99.35;41.05;;;1.70;99.90;;;;;;4984967;28;20023;-73
2021/12/14 07:38:21;;;;;;;134.48;48.30;;;1.70;99.90;;;;;;4992001;28;20118;-73
2021/12/14 07:40:52;;;;;;;133.65;45.30;;;1.70;99.90;;;;;;4992850;28;20034;-73
2021/12/14 07:43:29;;;;;;;92.07;40.30;;;1.80;99.90;;;;;;4992191;28;20027;-73
2021/12/14 07:45:56;;;;;;;74.65;37.58;;;1.80;99.90;;;;;;4992675;28;20447;-73
2021/12/14 07:48:43;;;;;;;89.15;38.00;;;1.80;99.90;;;;;;4992589;28;20034;-72
2021/12/14 07:51:09;;;;;;;115.72;48.35;;;1.80;99.90;;;;;;4985539;28;20023;-73
2021/12/14 07:53:41;;;;;;;123.38;53.67;;;1.80;99.90;;;;;;4992401;28;20464;-72
2021/12/14 07:56:09;;;;;;;112.15;47.75;;;1.70;99.90;;;;;;4992307;28;20029;-73
2021/12/14 07:58:39;;;;;;;100.43;39.47;;;1.80;99.90;;;;;;4992928;28;20472;-73
2021/12/14 08:01:07;;;;;;;79.20;39.13;;;1.90;99.90;;;;;;4992304;28;20034;-72
2021/12/14 08:03:34;;;;;;;89.68;39.65;;;1.90;99.90;;;;;;4989598;28;20105;-72
2021/12/14 08:06:04;;;;;;;79.60;38.20;;;1.90;99.90;;;;;;4992040;28;20024;-73
2021/12/14 08:08:42;;;;;;;79.75;39.53;;;1.90;99.90;;;;;;4992106;28;20027;-72
2021/12/14 08:13:58;;;;;;;94.13;45.55;;;1.90;99.90;;;;;;4991904;28;20435;-74
2021/12/14 08:16:24;;;;;;;105.00;51.55;;;2.00;99.90;;;;;;4991778;28;20097;-74
2021/12/14 08:18:51;;;;;;;92.20;41.25;;;1.90;99.90;;;;;;4991795;28;20492;-73
2021/12/14 08:21:26;;;;;;;85.95;36.22;;;1.90;99.90;;;;;;4991732;28;20034;-73
2021/12/14 08:23:59;;;;;;;117.20;56.95;;;1.90;99.90;;;;;;4991976;28;20379;-72
2021/12/14 08:26:35;;;;;;;117.55;54.22;;;2.00;99.90;;;;;;4992090;28;20030;-72
2021/12/14 08:29:14;;;;;;;74.88;40.35;;;2.10;99.90;;;;;;4992305;28;20122;-73
2021/12/14 08:31:53;;;;;;;84.22;41.95;;;2.10;99.90;;;;;;4977454;28;20105;-73
2021/12/14 08:34:32;;;;;;;88.78;42.70;;;2.20;99.90;;;;;;4991988;28;20030;-74
2021/12/14 08:37:12;;;;;;;94.53;40.67;;;2.20;99.90;;;;;;4991299;28;20481;-73
2021/12/14 08:39:45;;;;;;;81.57;39.42;;;2.20;99.90;;;;;;4975776;28;20510;-73
2021/12/14 08:42:34;;;;;;;101.22;47.90;;;2.20;99.90;;;;;;4988371;28;20109;-73
2021/12/14 08:45:24;;;;;;;101.50;47.22;;;2.30;99.90;;;;;;4990378;28;20030;-73
2021/12/14 08:48:17;;;;;;;110.43;46.80;;;2.30;99.90;;;;;;4986891;28;20085;-72
2021/12/14 08:50:48;;;;;;;105.95;46.20;;;2.40;99.90;;;;;;4986962;28;20031;-73
2021/12/14 08:53:15;;;;;;;87.85;41.17;;;2.50;99.90;;;;;;4986293;28;20129;-73
2021/12/14 08:55:46;;;;;;;78.10;38.35;;;2.50;99.90;;;;;;4989342;28;20761;-72
2021/12/14 08:58:14;;;;;;;71.38;36.97;;;2.50;99.90;;;;;;4990507;28;20030;-72
2021/12/14 09:00:46;;;;;;;69.32;35.60;;;2.50;99.90;;;;;;4991517;28;20023;-73
2021/12/14 09:03:19;;;;;;;78.18;36.40;;;2.60;99.90;;;;;;4990856;28;20388;-72
2021/12/14 09:05:50;;;;;;;72.80;33.60;;;2.60;99.90;;;;;;4989095;28;20034;-71
2021/12/14 09:08:18;;;;;;;71.07;36.78;;;2.60;99.90;;;;;;4993224;28;20027;-72
2021/12/14 09:10:48;;;;;;;64.13;34.03;;;2.60;99.90;;;;;;4994879;28;20033;-72
2021/12/14 09:13:14;;;;;;;69.00;35.40;;;2.60;99.90;;;;;;4994278;28;20113;-72
2021/12/14 09:15:52;;;;;;;75.25;36.70;;;2.70;99.90;;;;;;4994720;28;20069;-73
2021/12/14 09:18:20;;;;;;;79.97;36.70;;;2.70;99.90;;;;;;4994109;28;20072;-73
2021/12/14 09:20:57;;;;;;;81.50;35.53;;;2.70;99.90;;;;;;4994543;28;20418;-73
2021/12/14 09:23:31;;;;;;;62.03;36.08;;;2.70;99.90;;;;;;4994951;28;20433;-72
2021/12/14 09:26:03;;;;;;;66.47;35.72;;;2.90;99.90;;;;;;4994258;28;20113;-72
2021/12/14 09:28:31;;;;;;;70.35;39.33;;;2.80;99.90;;;;;;4995189;28;20063;-72
2021/12/14 09:31:00;;;;;;;62.95;35.90;;;2.90;99.90;;;;;;4994333;28;20367;-72
2021/12/14 09:33:27;;;;;;;62.10;33.92;;;3.00;99.90;;;;;;4994118;28;20096;-73
2021/12/14 09:35:56;;;;;;;59.08;35.17;;;3.00;99.90;;;;;;4994221;28;20018;-73
2021/12/14 09:38:31;;;;;;;61.33;32.97;;;3.00;99.90;;;;;;4993516;28;20034;-72
2021/12/14 09:41:03;;;;;;;60.22;34.28;;;3.10;99.90;;;;;;4995139;28;20026;-72
2021/12/14 09:43:30;;;;;;;60.55;34.25;;;3.20;99.90;;;;;;4994836;28;20046;-72
2021/12/14 09:45:58;;;;;;;61.55;32.97;;;3.20;99.90;;;;;;4994448;28;20030;-72
2021/12/14 09:48:36;;;;;;;49.35;28.55;;;3.20;99.90;;;;;;4993055;28;20156;-72
2021/12/14 09:51:07;;;;;;;43.67;27.00;;;3.20;99.90;;;;;;4988192;28;20113;-73
2021/12/14 09:53:36;;;;;;;59.17;30.00;;;3.10;99.90;;;;;;4978891;28;20060;-72
2021/12/14 09:56:03;;;;;;;51.30;31.40;;;3.20;99.90;;;;;;4993828;28;20034;-72
2021/12/14 09:58:36;;;;;;;46.95;27.15;;;3.40;99.90;;;;;;4994608;28;20030;-72
2021/12/14 10:01:12;;;;;;;44.80;27.85;;;3.40;99.90;;;;;;4994402;28;20369;-72
2021/12/14 10:03:40;;;;;;;45.17;28.63;;;3.30;99.90;;;;;;4979256;28;20022;-73
2021/12/14 10:06:10;;;;;;;39.90;25.48;;;3.50;99.90;;;;;;4992376;28;20089;-73
2021/12/14 10:08:45;;;;;;;40.78;25.50;;;3.60;99.90;;;;;;4993718;28;20031;-73
2021/12/14 10:11:24;;;;;;;41.58;28.27;;;3.50;99.90;;;;;;4993936;28;20029;-72
2021/12/14 10:13:51;;;;;;;42.10;27.58;;;3.60;99.90;;;;;;4994231;28;20023;-72
2021/12/14 10:16:17;;;;;;;44.72;26.83;;;3.70;99.90;;;;;;4993675;28;20046;-73
2021/12/14 10:18:51;;;;;;;43.40;25.90;;;3.60;99.90;;;;;;4992023;28;20122;-72
2021/12/14 10:21:30;;;;;;;40.55;25.48;;;3.80;99.90;;;;;;4992599;28;20113;-72
2021/12/14 10:23:59;;;;;;;38.08;24.48;;;3.90;99.90;;;;;;4994165;28;20081;-73
2021/12/14 10:26:26;;;;;;;45.58;28.38;;;3.90;99.90;;;;;;4994203;28;20026;-73
2021/12/14 10:28:56;;;;;;;49.45;29.25;;;4.10;99.90;;;;;;4993772;28;20026;-73
2021/12/14 10:31:31;;;;;;;46.70;29.55;;;4.00;99.90;;;;;;4993831;28;20023;-73
2021/12/14 10:34:01;;;;;;;45.22;28.75;;;4.00;99.90;;;;;;4994181;28;20468;-73
2021/12/14 10:36:39;;;;;;;52.60;31.58;;;4.00;99.90;;;;;;4993401;28;20026;-73
2021/12/14 10:44:32;;;;;;;48.25;30.67;;;4.10;99.90;;;;;;4993047;28;20501;-73
2021/12/14 10:46:59;;;;;;;53.25;30.77;;;4.10;99.90;;;;;;4991747;28;20121;-73
2021/12/14 10:49:25;;;;;;;46.00;28.15;;;4.20;99.90;;;;;;4986010;28;20029;-73
2021/12/14 10:51:59;;;;;;;43.22;27.65;;;4.10;99.90;;;;;;4987291;28;20026;-73
2021/12/14 10:54:26;;;;;;;40.42;25.67;;;4.40;99.90;;;;;;4990303;28;20574;-73
2021/12/14 10:56:57;;;;;;;35.75;24.27;;;4.50;99.90;;;;;;4987265;28;20045;-72
2021/12/14 10:59:29;;;;;;;41.55;25.40;;;4.70;99.90;;;;;;4989661;28;20034;-73
2021/12/14 11:01:55;;;;;;;40.35;24.55;;;4.90;99.90;;;;;;4988235;28;20021;-73
2021/12/14 11:04:37;;;;;;;38.03;23.90;;;5.00;99.90;;;;;;4989870;28;20030;-72
2021/12/14 11:07:07;;;;;;;41.25;26.75;;;5.20;99.90;;;;;;4991074;28;20064;-73
2021/12/14 11:09:42;;;;;;;35.65;23.65;;;5.10;99.90;;;;;;4980348;28;20101;-73
2021/12/14 11:12:12;;;;;;;41.95;27.73;;;5.20;99.90;;;;;;4992357;28;20376;-72
2021/12/14 11:14:38;;;;;;;33.78;21.75;;;5.30;99.90;;;;;;4990537;28;20030;-73
2021/12/14 11:19:55;;;;;;;36.80;24.13;;;5.20;99.90;;;;;;4978050;28;20520;-72
2021/12/14 11:22:23;;;;;;;35.30;22.65;;;5.10;99.90;;;;;;4985135;28;20457;-73
2021/12/14 11:25:05;;;;;;;36.90;23.33;;;5.00;99.90;;;;;;4988166;28;20087;-72
2021/12/14 11:27:35;;;;;;;35.35;23.90;;;5.10;99.90;;;;;;4992471;28;20026;-73
2021/12/14 11:30:23;;;;;;;37.88;24.52;;;5.20;99.90;;;;;;4991853;28;20025;-72
2021/12/14 11:33:04;;;;;;;37.47;24.75;;;5.40;99.90;;;;;;4991348;28;20105;-72
2021/12/14 11:35:33;;;;;;;36.80;24.25;;;5.50;99.90;;;;;;4991649;28;20041;-72
2021/12/14 11:38:02;;;;;;;38.88;26.95;;;5.30;99.90;;;;;;4992080;28;20007;-72
2021/12/14 11:40:30;;;;;;;41.55;26.67;;;5.40;99.90;;;;;;4992578;28;20362;-72
2021/12/14 11:43:13;;;;;;;37.90;26.75;;;5.30;99.90;;;;;;4992263;28;20033;-72
2021/12/14 11:45:41;;;;;;;35.30;23.02;;;5.20;99.90;;;;;;4988428;28;20034;-72
2021/12/14 11:48:08;;;;;;;40.88;25.98;;;5.10;99.90;;;;;;4992730;28;20499;-73
2021/12/14 11:50:38;;;;;;;39.70;26.20;;;5.30;99.90;;;;;;4988758;28;20023;-73
2021/12/14 11:53:10;;;;;;;42.50;25.73;;;5.20;99.90;;;;;;4990267;28;20030;-73
2021/12/14 11:55:39;;;;;;;40.85;27.27;;;5.30;99.90;;;;;;4983482;28;20508;-73
2021/12/14 11:58:04;;;;;;;37.90;23.80;;;5.20;99.90;;;;;;4992001;28;20048;-73
2021/12/14 12:00:32;;;;;;;41.13;26.27;;;5.10;99.90;;;;;;4991351;28;20472;-72
2021/12/14 12:03:25;;;;;;;40.28;26.98;;;5.40;99.90;;;;;;4991790;28;20015;-73
2021/12/14 12:06:05;;;;;;;42.75;27.73;;;5.40;99.90;;;;;;4978622;28;20030;-73
2021/12/14 12:11:19;;;;;;;47.33;29.33;;;5.40;99.90;;;;;;4991082;28;20035;-73
2021/12/14 12:13:46;;;;;;;41.10;27.80;;;5.30;99.90;;;;;;4991588;28;20097;-73
2021/12/14 12:16:23;;;;;;;45.53;30.88;;;5.10;99.90;;;;;;4990932;28;20061;-73
2021/12/14 12:19:17;;;;;;;45.75;28.95;;;5.10;99.90;;;;;;4991238;28;20035;-73
2021/12/14 12:21:46;;;;;;;38.75;27.10;;;5.10;99.90;;;;;;4989192;28;20030;-72
2021/12/14 12:24:31;;;;;;;39.65;28.08;;;4.90;99.90;;;;;;4981112;28;20029;-73
2021/12/14 12:27:31;;;;;;;45.83;32.03;;;4.90;99.90;;;;;;4992097;28;20026;-73
2021/12/14 12:30:26;;;;;;;47.08;31.23;;;4.90;99.90;;;;;;4979594;28;20377;-73
2021/12/14 12:32:53;;;;;;;50.53;33.85;;;4.90;99.90;;;;;;4992468;28;20042;-73
2021/12/14 12:35:39;;;;;;;51.28;36.33;;;5.20;99.90;;;;;;4992297;28;20022;-73
2021/12/14 12:38:35;;;;;;;50.42;35.10;;;5.00;99.90;;;;;;4990564;28;20068;-72
2021/12/14 12:41:10;;;;;;;44.58;30.08;;;5.00;99.90;;;;;;4985218;28;20035;-73
2021/12/14 12:43:48;;;;;;;40.95;28.67;;;4.90;99.90;;;;;;4979667;28;20019;-72
2021/12/14 12:46:21;;;;;;;47.08;29.88;;;5.00;99.90;;;;;;4985428;28;20076;-72
2021/12/14 12:49:11;;;;;;;50.17;31.05;;;5.00;99.90;;;;;;4982905;28;20038;-72
2021/12/14 12:52:09;;;;;;;46.58;32.28;;;4.90;99.90;;;;;;4987533;28;20034;-72
2021/12/14 12:54:46;;;;;;;46.67;29.70;;;4.90;99.90;;;;;;4987372;28;20030;-71
2021/12/14 12:57:34;;;;;;;51.47;33.08;;;5.00;99.90;;;;;;4989634;28;20232;-72
2021/12/14 13:00:28;;;;;;;41.78;26.75;;;4.90;99.90;;;;;;4994684;28;20070;-72
2021/12/14 13:03:17;;;;;;;48.10;29.58;;;5.00;99.90;;;;;;4976266;28;20101;-72
2021/12/14 13:05:53;;;;;;;40.97;28.60;;;4.90;99.90;;;;;;4995882;28;20038;-72
2021/12/14 13:08:34;;;;;;;47.17;30.63;;;4.90;99.90;;;;;;4994079;28;20497;-72
2021/12/14 13:11:13;;;;;;;59.38;37.55;;;5.00;99.90;;;;;;4994310;28;20469;-72
2021/12/14 13:13:48;;;;;;;68.35;41.97;;;5.10;99.90;;;;;;4995392;28;20053;-71
2021/12/14 13:16:21;;;;;;;75.70;46.63;;;5.30;99.90;;;;;;4994476;28;20050;-72
2021/12/14 13:18:47;;;;;;;62.83;35.97;;;5.30;99.90;;;;;;4994894;28;20423;-73
2021/12/14 13:21:40;;;;;;;64.75;40.42;;;5.30;99.90;;;;;;4994695;28;20038;-72
2021/12/14 13:24:20;;;;;;;50.88;32.58;;;5.30;99.90;;;;;;4994692;28;20444;-72
2021/12/14 13:27:06;;;;;;;51.33;31.00;;;5.20;99.90;;;;;;4994349;28;20096;-72
2021/12/14 13:29:44;;;;;;;46.40;30.25;;;5.20;99.90;;;;;;4995043;28;20476;-71
2021/12/14 13:32:18;;;;;;;45.45;30.40;;;5.10;99.90;;;;;;4994301;28;20485;-72
2021/12/14 13:34:59;;;;;;;50.67;33.13;;;5.10;99.90;;;;;;4993703;28;20149;-72
2021/12/14 13:37:29;;;;;;;47.80;33.47;;;5.00;99.90;;;;;;4994488;28;20473;-71
2021/12/14 13:39:56;;;;;;;58.15;36.85;;;5.00;99.90;;;;;;4994555;28;20057;-73
2021/12/14 13:42:40;;;;;;;58.60;36.88;;;4.90;99.90;;;;;;4994709;28;20054;-72
2021/12/14 13:45:12;;;;;;;48.05;30.98;;;4.80;99.90;;;;;;4994355;28;20071;-72
2021/12/14 13:47:39;;;;;;;40.75;27.63;;;4.70;99.90;;;;;;4994869;28;20608;-71
2021/12/14 13:50:09;;;;;;;48.05;29.27;;;4.60;99.90;;;;;;4994922;28;20385;-71
2021/12/14 13:52:35;;;;;;;68.75;43.22;;;4.60;99.90;;;;;;4993695;28;20031;-71
2021/12/14 13:55:09;;;;;;;118.53;61.13;;;4.60;99.90;;;;;;4991561;28;20014;-73